Accueil
METAR-TAF:

METAR-TAF

Aéroports :

Aéroport international de Düsseldorf

Düsseldorf, Allemagne

latitude: 51-18N, longitude: 006-46E, altitude: 45 m

Observation

Le bulletin a été fait il y a 19 minutes, à 03:20 UTC
Vent 4 kt de nord
Température 14°C
Humidité 94%
Pression 1013 hPa
Visibilité 10 km ou plus
pas de nuages en-dessous de 1500 mètres et pas de cumulonimbus.

METAR: EDDL 020320Z 36004KT CAVOK 14/13 Q1013 NOSIG

Heure: 05:39 (03:39 UTC)

Prévision

Le bulletin a été fait il y a 4 heures et 39 minutes, à 23:00 UTC
Prévision valable du 02 à 00 UTC au 03 à 06 UTC
Vent 3 kt de direction variable
Visibilité 10 km ou plus
Nuages fragmentés à une hauteur de 3000 ft
Probabilité 40% :
Temporairement
du 02 à 02 UTC au 02 à 09 UTC
Nuages fragmentés à une hauteur de 800 ft
Temporairement
du 02 à 09 UTC au 02 à 17 UTC
Vent 7 kt de ouest

TAF: EDDL 012300Z 0200/0306 VRB03KT 9999 BKN030 PROB40 TEMPO 0202/0209 BKN008 TEMPO 0209/0217 27007KT

Observations et prévisions météorologiques de plus de 4000 aéroports (messages METAR et TAF).

Les stations disponibles sont représentées par des disques jaunes et rouges sur la carte.

Passer la souris dessus pour voir le nom de la station.

Cliquer dessus pour voir les observations et prévisions météorologiques.

Pour changer de carte: cliquez sur les boutons verts avec une croix noire pour zoomer, sur le bouton vert avec un tiret pour effectuer un zoom arrière, ou sur les flèches vertes pour les cartes adjacentes.


METAR-TAF: